KFLG/FLG METAR and TAF weather

Enter ICAO airport designator
Station Type Date Time Source
KFLG METAR 2021/10/20 06:57 UTC NOAA

KFLG 200657Z AUTO 00000KT 10SM CLR M03/M04 A3023 RMK AO2 SLP202 T10281039 401281028


Station Type Date Time Source
KFLG Decoded METAR 2021/10/20 06:57 UTC NOAA

FLAGSTAFF PULLIAM AIRPORT, AZ, United States (KFLG) 35-08N 111-40W 2134M
Oct 20, 2021 - 02:57 AM EDT / 2021.10.20 0657 UTC
Wind: Calm:0
Visibility: 10 mile(s):0
Sky conditions: clear
Temperature: 27.0 F (-2.8 C)
Dew Point: 25.0 F (-3.9 C)
Relative Humidity: 92%
Pressure (altimeter): 30.23 in. Hg (1023 hPa)
ob: KFLG 200657Z AUTO 00000KT 10SM CLR M03/M04 A3023 RMK AO2 SLP202 T10281039 401281028
cycle: 7

Station Type Date Time Source
KFLG TAF 2021/10/20 06:22 UTC NOAA

TAF KFLG 200520Z 2006/2106 VRB02KT P6SM SKC
FM201900 21009G15KT P6SM SCT250
FM210100 VRB04KT P6SM SKC

Example: see airport list